Time;durP1;ratioP1;P1;durP2;ratioP2;P2;SDS_P1;SDS_P2;PMS_P1;PMS_P2;Temp;Humidity;BMP_temperature;BMP_pressure;BME280_temperature;BME280_humidity;BME280_pressure;Samples;Min_cycle;Max_cycle;Signal;HPM_P1;HPM_P2
2021/08/15 00:01:25;;;;;;;0.60;0.60;;;24.80;50.60;;;;;;5136535;28;20552;-35
2021/08/15 00:03:51;;;;;;;1.08;0.70;;;24.80;50.60;;;;;;5136768;28;20050;-36
2021/08/15 00:06:17;;;;;;;0.63;0.63;;;24.80;50.70;;;;;;5117810;28;20482;-35
2021/08/15 00:08:46;;;;;;;0.70;0.63;;;24.80;50.70;;;;;;5117873;28;20059;-36
2021/08/15 00:11:12;;;;;;;0.73;0.73;;;24.80;50.70;;;;;;5136413;28;20047;-35
2021/08/15 00:13:37;;;;;;;0.52;0.52;;;24.80;50.70;;;;;;5136344;28;20111;-36
2021/08/15 00:16:03;;;;;;;1.02;0.90;;;24.80;50.70;;;;;;5136200;28;20502;-35
2021/08/15 00:18:29;;;;;;;0.75;0.70;;;24.80;50.70;;;;;;5136091;28;20075;-35
2021/08/15 00:20:55;;;;;;;0.73;0.73;;;24.80;50.70;;;;;;5136347;28;20051;-36
2021/08/15 00:23:20;;;;;;;0.85;0.85;;;24.80;50.80;;;;;;5136115;28;20058;-36
2021/08/15 00:25:46;;;;;;;0.70;0.70;;;24.80;50.80;;;;;;5136232;28;20062;-36
2021/08/15 00:28:11;;;;;;;0.70;0.70;;;24.80;50.80;;;;;;5115563;28;20056;-35
2021/08/15 00:30:37;;;;;;;0.60;0.50;;;24.70;50.80;;;;;;5136545;28;20077;-35
2021/08/15 00:33:03;;;;;;;0.88;0.85;;;24.70;50.80;;;;;;5136344;28;20069;-36
2021/08/15 00:35:28;;;;;;;0.68;0.68;;;24.70;50.80;;;;;;5136266;28;20062;-35
2021/08/15 00:37:54;;;;;;;0.77;0.77;;;24.70;50.80;;;;;;5135754;28;20402;-36
2021/08/15 00:40:19;;;;;;;0.70;0.70;;;24.80;50.90;;;;;;5136162;28;20406;-35
2021/08/15 00:42:46;;;;;;;0.80;0.80;;;24.70;50.90;;;;;;5135817;28;20406;-36
2021/08/15 00:45:14;;;;;;;0.80;0.70;;;24.70;50.90;;;;;;5136324;28;20047;-36
2021/08/15 00:47:40;;;;;;;0.80;0.80;;;24.70;50.90;;;;;;5135832;28;20039;-35
2021/08/15 00:50:08;;;;;;;0.70;0.70;;;24.70;50.90;;;;;;5136008;28;20058;-35
2021/08/15 00:52:36;;;;;;;0.68;0.68;;;24.70;50.90;;;;;;5135730;28;20055;-35
2021/08/15 00:55:02;;;;;;;0.63;0.63;;;24.70;50.90;;;;;;5136007;28;20410;-38
2021/08/15 00:57:33;;;;;;;0.70;0.70;;;24.70;50.90;;;;;;5135521;28;20047;-36
2021/08/15 01:00:05;;;;;;;0.57;0.57;;;24.70;51.00;;;;;;5117006;28;20043;-36
2021/08/15 01:02:33;;;;;;;0.70;0.70;;;24.70;51.00;;;;;;5135349;27;20051;-36
2021/08/15 01:05:01;;;;;;;0.70;0.70;;;24.70;51.00;;;;;;5133686;28;20039;-36
2021/08/15 01:07:26;;;;;;;0.63;0.60;;;24.70;51.00;;;;;;5135025;28;20043;-35
2021/08/15 01:09:52;;;;;;;0.82;0.75;;;24.70;51.00;;;;;;5135084;28;20051;-35
2021/08/15 01:12:18;;;;;;;0.65;0.65;;;24.70;51.00;;;;;;5135096;28;20054;-36
2021/08/15 01:14:44;;;;;;;0.63;0.63;;;24.60;51.00;;;;;;5135030;28;20138;-36
2021/08/15 01:17:11;;;;;;;0.82;0.80;;;24.60;51.00;;;;;;5135373;28;20055;-36
2021/08/15 01:19:36;;;;;;;0.65;0.65;;;24.60;51.00;;;;;;5134947;28;20473;-35
2021/08/15 01:22:03;;;;;;;0.52;0.52;;;24.60;51.00;;;;;;5135244;28;20079;-36
2021/08/15 01:24:28;;;;;;;0.68;0.68;;;24.60;51.00;;;;;;5135198;28;20047;-36
2021/08/15 01:26:59;;;;;;;0.70;0.70;;;24.60;51.00;;;;;;5135278;28;20138;-36
2021/08/15 01:29:28;;;;;;;;;;;24.60;51.10;;;;;;5117410;28;20108;-35
2021/08/15 01:31:54;;;;;;;0.80;0.70;;;24.60;51.10;;;;;;5135073;28;20013;-36
2021/08/15 01:34:20;;;;;;;0.73;0.73;;;24.60;51.10;;;;;;5133712;28;20062;-35
2021/08/15 01:36:46;;;;;;;0.70;0.70;;;24.60;51.10;;;;;;5134946;28;20043;-35
2021/08/15 01:39:11;;;;;;;0.75;0.75;;;24.60;51.10;;;;;;5135489;28;20138;-35
2021/08/15 01:41:37;;;;;;;0.75;0.75;;;24.60;51.10;;;;;;5134863;28;20490;-36
2021/08/15 01:44:03;;;;;;;0.70;0.70;;;24.60;51.10;;;;;;5134949;28;20070;-36
2021/08/15 01:46:31;;;;;;;0.93;0.80;;;24.60;51.10;;;;;;5134859;28;20039;-35
2021/08/15 01:48:58;;;;;;;0.65;0.65;;;24.60;51.10;;;;;;5135084;28;20054;-35
2021/08/15 01:51:24;;;;;;;0.68;0.68;;;24.60;51.20;;;;;;5134719;28;20055;-36
2021/08/15 01:53:52;;;;;;;0.60;0.60;;;24.60;51.10;;;;;;5135160;28;20459;-36
2021/08/15 01:56:19;;;;;;;0.57;0.57;;;24.60;51.20;;;;;;5134786;28;20510;-36
2021/08/15 01:58:45;;;;;;;0.55;0.55;;;24.60;51.20;;;;;;5134595;28;20055;-36
2021/08/15 02:01:18;;;;;;;0.55;0.55;;;24.60;51.20;;;;;;5134616;28;20082;-36
2021/08/15 02:03:47;;;;;;;0.70;0.70;;;24.60;51.70;;;;;;5134942;28;20050;-36
2021/08/15 02:06:14;;;;;;;0.80;0.80;;;24.60;51.20;;;;;;5134143;28;20043;-36
2021/08/15 02:08:40;;;;;;;0.65;0.65;;;24.50;51.10;;;;;;5115309;28;20083;-36
2021/08/15 02:11:06;;;;;;;0.70;0.70;;;24.50;51.20;;;;;;5134335;28;20086;-36
2021/08/15 02:13:31;;;;;;;0.70;0.70;;;24.50;51.20;;;;;;5134110;27;20123;-36
2021/08/15 02:15:57;;;;;;;0.63;0.63;;;24.60;51.30;;;;;;5134045;28;20124;-37
2021/08/15 02:18:23;;;;;;;0.73;0.73;;;24.50;51.20;;;;;;5134833;28;20080;-36
2021/08/15 02:20:48;;;;;;;0.60;0.60;;;24.50;51.20;;;;;;5134239;28;20054;-36
2021/08/15 02:23:14;;;;;;;0.70;0.70;;;24.50;51.30;;;;;;5134257;28;20047;-36
2021/08/15 02:25:40;;;;;;;0.80;0.80;;;24.50;51.30;;;;;;5134267;28;20049;-36
2021/08/15 02:28:07;;;;;;;0.93;0.93;;;24.50;51.20;;;;;;5134071;28;20075;-36
2021/08/15 02:30:33;;;;;;;0.70;0.70;;;24.50;51.20;;;;;;5134098;28;20501;-36
2021/08/15 02:32:59;;;;;;;0.73;0.73;;;24.50;51.30;;;;;;5134165;28;20043;-36
2021/08/15 02:35:25;;;;;;;0.80;0.80;;;24.50;51.30;;;;;;5134364;28;20095;-36
2021/08/15 02:37:53;;;;;;;0.90;0.90;;;24.50;51.30;;;;;;5134266;28;20066;-36
2021/08/15 02:40:21;;;;;;;0.55;0.55;;;24.50;51.30;;;;;;5133980;28;20165;-36
2021/08/15 02:42:48;;;;;;;0.68;0.68;;;24.50;51.30;;;;;;5134282;28;20047;-36
2021/08/15 02:45:16;;;;;;;0.93;0.70;;;24.50;51.30;;;;;;5115875;28;20508;-36
2021/08/15 02:47:42;;;;;;;0.80;0.80;;;24.50;51.30;;;;;;5133854;28;20075;-36
2021/08/15 02:50:10;;;;;;;0.75;0.75;;;24.50;51.30;;;;;;5134174;28;20042;-35
2021/08/15 02:52:38;;;;;;;0.70;0.70;;;24.50;51.30;;;;;;5134211;28;20111;-36
2021/08/15 02:55:08;;;;;;;0.90;0.90;;;24.50;51.40;;;;;;5133698;28;20405;-36
2021/08/15 02:57:37;;;;;;;0.60;0.60;;;24.50;51.40;;;;;;5133819;28;20091;-36
2021/08/15 03:00:10;;;;;;;0.50;0.50;;;24.50;51.40;;;;;;5133950;28;20055;-36
2021/08/15 03:02:39;;;;;;;0.60;0.60;;;24.50;51.40;;;;;;5134079;28;20042;-36
2021/08/15 03:05:07;;;;;;;0.73;0.65;;;24.50;51.40;;;;;;5115149;28;20150;-36
2021/08/15 03:07:32;;;;;;;0.52;0.52;;;24.50;51.40;;;;;;5133628;28;20059;-37
2021/08/15 03:09:58;;;;;;;0.80;0.80;;;24.50;51.40;;;;;;5133307;28;20441;-36
2021/08/15 03:12:24;;;;;;;0.60;0.60;;;24.40;51.40;;;;;;5133520;28;20050;-36
2021/08/15 03:14:49;;;;;;;0.52;0.52;;;24.50;51.40;;;;;;5133423;28;20390;-36
2021/08/15 03:17:15;;;;;;;0.60;0.60;;;24.50;51.40;;;;;;5133757;28;20130;-36
2021/08/15 03:19:41;;;;;;;0.50;0.50;;;24.40;51.40;;;;;;5133181;28;20078;-36
2021/08/15 03:22:07;;;;;;;0.70;0.70;;;24.50;51.40;;;;;;5115201;28;20402;-36
2021/08/15 03:24:33;;;;;;;0.70;0.70;;;24.40;51.40;;;;;;5133393;28;20059;-36
2021/08/15 03:26:58;;;;;;;0.70;0.70;;;24.40;51.40;;;;;;5136622;27;20043;-36
2021/08/15 03:29:24;;;;;;;0.60;0.60;;;24.40;51.50;;;;;;5136957;28;20055;-36
2021/08/15 03:31:49;;;;;;;0.55;0.55;;;24.40;51.40;;;;;;5137096;28;20043;-36
2021/08/15 03:34:19;;;;;;;0.60;0.60;;;24.40;51.40;;;;;;5137309;28;20051;-36
2021/08/15 03:36:45;;;;;;;0.68;0.68;;;24.40;51.40;;;;;;5137206;28;20050;-36
2021/08/15 03:39:11;;;;;;;0.68;0.68;;;24.40;51.50;;;;;;5136812;28;20125;-36
2021/08/15 03:41:36;;;;;;;0.80;0.80;;;24.40;51.50;;;;;;5136789;28;20074;-36
2021/08/15 03:44:02;;;;;;;0.60;0.60;;;24.40;51.50;;;;;;5137170;28;20051;-36
2021/08/15 03:46:28;;;;;;;0.63;0.63;;;24.40;52.10;;;;;;5136442;28;20100;-36
2021/08/15 03:48:53;;;;;;;0.68;0.60;;;24.40;51.50;;;;;;5137234;28;20051;-36
2021/08/15 03:51:19;;;;;;;0.70;0.63;;;24.40;51.50;;;;;;5137046;28;20137;-36
2021/08/15 03:53:44;;;;;;;0.52;0.52;;;24.40;51.50;;;;;;5136936;28;20066;-36
2021/08/15 03:56:10;;;;;;;0.70;0.70;;;24.40;51.50;;;;;;5136575;28;20594;-36
2021/08/15 03:58:36;;;;;;;0.70;0.70;;;24.40;51.60;;;;;;5136630;28;20505;-37
2021/08/15 04:01:02;;;;;;;0.70;0.70;;;24.40;51.60;;;;;;5136568;28;20422;-36
2021/08/15 04:03:27;;;;;;;0.68;0.68;;;24.40;51.60;;;;;;5136543;28;20679;-36
2021/08/15 04:05:57;;;;;;;0.95;0.95;;;24.40;51.60;;;;;;5116716;28;20055;-36
2021/08/15 04:08:23;;;;;;;0.68;0.68;;;24.30;51.60;;;;;;5136806;28;20085;-36
2021/08/15 04:10:49;;;;;;;1.27;0.90;;;24.40;51.60;;;;;;5136389;28;20050;-36
2021/08/15 04:13:15;;;;;;;0.45;0.45;;;24.40;51.60;;;;;;5136325;28;20050;-36
2021/08/15 04:15:40;;;;;;;0.50;0.50;;;24.30;51.60;;;;;;5136130;28;20406;-37
2021/08/15 04:18:06;;;;;;;0.70;0.57;;;24.40;51.60;;;;;;5136246;28;20051;-36
2021/08/15 04:20:32;;;;;;;0.52;0.52;;;24.30;51.60;;;;;;5136099;28;20057;-36
2021/08/15 04:22:57;;;;;;;0.70;0.70;;;24.30;51.60;;;;;;5136085;28;20104;-36
2021/08/15 04:25:23;;;;;;;0.60;0.60;;;24.30;51.60;;;;;;5136142;28;20510;-37
2021/08/15 04:27:48;;;;;;;0.68;0.68;;;24.30;51.60;;;;;;5135932;28;20055;-36
2021/08/15 04:30:14;;;;;;;0.63;0.63;;;24.30;51.60;;;;;;5136042;28;20074;-36
2021/08/15 04:32:40;;;;;;;0.50;0.50;;;24.30;51.70;;;;;;5136125;28;20067;-36
2021/08/15 04:35:08;;;;;;;0.70;0.70;;;24.30;51.70;;;;;;5136145;28;20047;-36
2021/08/15 04:37:34;;;;;;;0.80;0.80;;;24.30;51.70;;;;;;5135396;27;20079;-37
2021/08/15 04:39:59;;;;;;;0.60;0.60;;;24.30;51.70;;;;;;5135701;28;20502;-37
2021/08/15 04:42:25;;;;;;;1.02;0.93;;;24.30;51.70;;;;;;5115353;28;20055;-37
2021/08/15 04:44:50;;;;;;;0.70;0.70;;;24.30;51.70;;;;;;5135486;28;20082;-36
2021/08/15 04:47:16;;;;;;;0.80;0.80;;;24.30;51.70;;;;;;5135958;28;20429;-36
2021/08/15 04:49:41;;;;;;;0.60;0.60;;;24.30;51.70;;;;;;5117341;28;20407;-36
2021/08/15 04:52:07;;;;;;;0.60;0.60;;;24.30;51.70;;;;;;5135736;28;20482;-36
2021/08/15 04:54:33;;;;;;;0.73;0.73;;;24.30;51.70;;;;;;5117336;28;20344;-36
2021/08/15 04:56:59;;;;;;;0.60;0.60;;;24.30;51.70;;;;;;5135855;28;20134;-36
2021/08/15 04:59:25;;;;;;;0.60;0.60;;;24.30;51.70;;;;;;5135603;28;20047;-37
2021/08/15 05:01:52;;;;;;;0.73;0.70;;;24.30;51.70;;;;;;5135602;28;20134;-36
2021/08/15 05:04:17;;;;;;;0.57;0.57;;;24.30;51.70;;;;;;5117591;28;20047;-35
2021/08/15 05:06:43;;;;;;;0.60;0.60;;;24.30;51.80;;;;;;5135424;28;20447;-36
2021/08/15 05:09:08;;;;;;;0.70;0.70;;;24.20;51.70;;;;;;5135521;28;20054;-36
2021/08/15 05:11:34;;;;;;;0.60;0.60;;;24.30;51.80;;;;;;5135478;28;20116;-36
2021/08/15 05:14:00;;;;;;;0.73;0.70;;;24.20;51.70;;;;;;5135374;28;20380;-37
2021/08/15 05:16:25;;;;;;;0.60;0.60;;;24.30;51.80;;;;;;5116861;28;20099;-36
2021/08/15 05:18:51;;;;;;;0.75;0.65;;;24.20;51.70;;;;;;5135278;28;20058;-36
2021/08/15 05:21:17;;;;;;;0.80;0.80;;;24.20;51.70;;;;;;5135077;28;20082;-36
2021/08/15 05:23:43;;;;;;;0.60;0.60;;;24.20;51.80;;;;;;5135260;28;20058;-36
2021/08/15 05:26:09;;;;;;;0.60;0.60;;;24.20;51.80;;;;;;5135369;28;20495;-36
2021/08/15 05:28:34;;;;;;;0.77;0.77;;;24.20;51.80;;;;;;5135125;28;20084;-36
2021/08/15 05:31:00;;;;;;;0.60;0.60;;;24.20;51.80;;;;;;5135444;28;20084;-36
2021/08/15 05:33:26;;;;;;;0.68;0.68;;;24.20;51.80;;;;;;5135139;28;20371;-35
2021/08/15 05:35:51;;;;;;;0.50;0.50;;;24.20;51.80;;;;;;5135063;28;20447;-35
2021/08/15 05:38:17;;;;;;;0.77;0.77;;;24.20;51.80;;;;;;5134831;28;20051;-36
2021/08/15 05:40:43;;;;;;;0.55;0.55;;;24.20;51.80;;;;;;5135117;28;20063;-35
2021/08/15 05:43:08;;;;;;;0.60;0.60;;;24.20;51.80;;;;;;5134929;28;20103;-36
2021/08/15 05:45:34;;;;;;;0.70;0.70;;;24.20;51.80;;;;;;5135350;28;20055;-35
2021/08/15 05:47:59;;;;;;;0.60;0.60;;;24.20;51.80;;;;;;5134731;28;20092;-35
2021/08/15 05:50:25;;;;;;;0.65;0.65;;;24.20;51.80;;;;;;5133930;27;20395;-35
2021/08/15 05:52:50;;;;;;;0.80;0.70;;;24.20;51.80;;;;;;5134820;28;20047;-36
2021/08/15 05:55:16;;;;;;;0.60;0.60;;;24.20;51.80;;;;;;5134691;28;20054;-35
2021/08/15 05:57:42;;;;;;;0.60;0.60;;;24.20;51.80;;;;;;5134685;28;20043;-36
2021/08/15 06:00:09;;;;;;;0.70;0.70;;;24.20;51.80;;;;;;5114499;28;20062;-36
2021/08/15 06:02:38;;;;;;;0.63;0.63;;;24.20;51.90;;;;;;5131221;28;20100;-35
2021/08/15 06:05:08;;;;;;;0.60;0.60;;;24.20;51.80;;;;;;5134474;28;20051;-35
2021/08/15 06:07:33;;;;;;;0.60;0.60;;;24.20;51.80;;;;;;5134625;28;20391;-36
2021/08/15 06:09:59;;;;;;;0.70;0.70;;;24.20;51.90;;;;;;5134247;28;20080;-36
2021/08/15 06:12:24;;;;;;;0.50;0.50;;;24.20;51.90;;;;;;5134852;28;20138;-36
2021/08/15 06:14:50;;;;;;;0.98;0.70;;;24.20;51.90;;;;;;5134156;28;20077;-36
2021/08/15 06:17:16;;;;;;;0.50;0.50;;;24.20;51.90;;;;;;5134152;28;20047;-36
2021/08/15 06:19:42;;;;;;;0.68;0.68;;;24.20;51.90;;;;;;5113670;28;20051;-36
2021/08/15 06:22:09;;;;;;;0.70;0.70;;;24.20;51.80;;;;;;5134560;28;20058;-36
2021/08/15 06:24:35;;;;;;;0.73;0.73;;;24.20;51.90;;;;;;5134354;28;20132;-36
2021/08/15 06:27:02;;;;;;;0.68;0.68;;;24.20;51.90;;;;;;5134526;28;20093;-36
2021/08/15 06:29:28;;;;;;;1.60;0.70;;;24.20;51.90;;;;;;5134070;28;20055;-36
2021/08/15 06:31:54;;;;;;;0.70;0.70;;;24.20;51.90;;;;;;5134517;28;20632;-36
2021/08/15 06:34:19;;;;;;;0.60;0.60;;;24.20;51.90;;;;;;5134077;28;20414;-36
2021/08/15 06:36:45;;;;;;;0.63;0.63;;;24.20;51.90;;;;;;5134082;28;20123;-36
2021/08/15 06:39:10;;;;;;;0.60;0.60;;;24.20;51.90;;;;;;5134280;28;20043;-36
2021/08/15 06:41:36;;;;;;;0.63;0.63;;;24.20;52.00;;;;;;5134031;28;20051;-36
2021/08/15 06:44:01;;;;;;;0.65;0.65;;;24.20;52.00;;;;;;5134038;28;20051;-36
2021/08/15 06:46:27;;;;;;;0.60;0.60;;;24.20;52.00;;;;;;5133832;28;20063;-35
2021/08/15 06:48:52;;;;;;;1.10;0.68;;;24.10;51.90;;;;;;5133833;28;20055;-36
2021/08/15 06:51:18;;;;;;;0.70;0.70;;;24.10;51.90;;;;;;5133760;28;20043;-37
2021/08/15 06:53:43;;;;;;;0.50;0.50;;;24.10;51.90;;;;;;5133727;28;20039;-35
2021/08/15 06:56:11;;;;;;;0.60;0.60;;;24.20;52.00;;;;;;5134077;28;20055;-36
2021/08/15 06:58:37;;;;;;;0.57;0.57;;;24.10;51.90;;;;;;5133766;28;20042;-37
2021/08/15 07:01:03;;;;;;;0.75;0.75;;;24.10;51.90;;;;;;5133471;27;20150;-37
2021/08/15 07:03:29;;;;;;;0.60;0.60;;;24.10;51.90;;;;;;5133624;28;20051;-37
2021/08/15 07:05:55;;;;;;;0.85;0.80;;;24.10;51.90;;;;;;5133636;28;20137;-37
2021/08/15 07:08:21;;;;;;;0.73;0.73;;;24.20;51.90;;;;;;5133694;28;20103;-37
2021/08/15 07:10:47;;;;;;;0.80;0.70;;;24.20;51.90;;;;;;5115229;28;20055;-36
2021/08/15 07:13:13;;;;;;;0.60;0.60;;;24.20;51.90;;;;;;5134027;28;20051;-37
2021/08/15 07:15:39;;;;;;;0.70;0.70;;;24.20;51.90;;;;;;5133615;28;20051;-37
2021/08/15 07:18:05;;;;;;;0.60;0.60;;;24.20;51.90;;;;;;5134076;28;20051;-36
2021/08/15 07:20:31;;;;;;;0.70;0.70;;;24.10;51.90;;;;;;5133746;28;20391;-37
2021/08/15 07:22:57;;;;;;;0.50;0.50;;;24.20;51.90;;;;;;5133723;28;20051;-37
2021/08/15 07:25:25;;;;;;;0.60;0.60;;;24.20;51.90;;;;;;5133481;28;20051;-37
2021/08/15 07:27:51;;;;;;;0.70;0.70;;;24.20;51.90;;;;;;5133305;28;20483;-37
2021/08/15 07:30:16;;;;;;;0.50;0.50;;;24.20;51.90;;;;;;5133209;28;20043;-37
2021/08/15 07:33:00;;;;;;;0.70;0.70;;;24.20;51.90;;;;;;5133305;28;20134;-37
2021/08/15 07:35:26;;;;;;;0.60;0.60;;;24.20;52.00;;;;;;5133706;28;20043;-36
2021/08/15 07:37:51;;;;;;;0.60;0.60;;;24.20;51.90;;;;;;5132885;28;20051;-36
2021/08/15 07:40:18;;;;;;;0.73;0.63;;;24.20;51.90;;;;;;5114212;28;20066;-37
2021/08/15 07:42:45;;;;;;;0.63;0.63;;;24.20;51.90;;;;;;5114737;28;20051;-36
2021/08/15 07:45:13;;;;;;;0.68;0.68;;;24.20;51.90;;;;;;5115021;28;20103;-36
2021/08/15 07:47:40;;;;;;;0.50;0.50;;;24.20;51.90;;;;;;5133130;28;20054;-36
2021/08/15 07:50:07;;;;;;;0.63;0.63;;;24.20;51.90;;;;;;5114571;28;20384;-36
2021/08/15 07:52:33;;;;;;;0.50;0.50;;;24.20;51.90;;;;;;5132929;28;20055;-37
2021/08/15 07:54:58;;;;;;;0.57;0.57;;;24.20;51.90;;;;;;5132891;28;20158;-37
2021/08/15 07:57:24;;;;;;;0.55;0.55;;;24.20;51.90;;;;;;5132733;28;20062;-37
2021/08/15 07:59:49;;;;;;;0.60;0.60;;;24.20;51.90;;;;;;5132659;28;20537;-36
2021/08/15 08:02:17;;;;;;;0.50;0.50;;;24.20;51.90;;;;;;5133552;28;20486;-37
2021/08/15 08:04:43;;;;;;;0.70;0.70;;;24.20;51.90;;;;;;5114382;28;20503;-37
2021/08/15 08:07:09;;;;;;;0.60;0.60;;;24.20;51.80;;;;;;5133396;28;20043;-37
2021/08/15 08:09:35;;;;;;;0.60;0.60;;;24.20;51.70;;;;;;5132655;28;20047;-37
2021/08/15 08:12:01;;;;;;;0.68;0.68;;;24.20;51.70;;;;;;5132896;27;20495;-37
2021/08/15 08:14:27;;;;;;;0.68;0.60;;;24.20;51.80;;;;;;5136315;28;20074;-37
2021/08/15 08:16:52;;;;;;;0.60;0.60;;;24.20;51.70;;;;;;5136835;28;20479;-37
2021/08/15 08:19:18;;;;;;;0.55;0.55;;;24.20;51.70;;;;;;5136064;28;20086;-37
2021/08/15 08:21:44;;;;;;;0.63;0.63;;;24.20;51.70;;;;;;5136863;28;20054;-37
2021/08/15 08:24:10;;;;;;;0.60;0.60;;;24.20;51.70;;;;;;5136146;28;20039;-37
2021/08/15 08:26:35;;;;;;;0.73;0.70;;;24.20;51.70;;;;;;5136180;28;20082;-37
2021/08/15 08:29:01;;;;;;;0.70;0.70;;;24.20;51.70;;;;;;5136478;28;20051;-36
2021/08/15 08:31:27;;;;;;;0.65;0.65;;;24.20;51.80;;;;;;5136169;28;20051;-36
2021/08/15 08:33:54;;;;;;;0.70;0.70;;;24.20;51.80;;;;;;5136203;28;20397;-36
2021/08/15 08:36:20;;;;;;;0.90;0.90;;;24.20;51.80;;;;;;5136302;28;20093;-36
2021/08/15 08:38:45;;;;;;;0.63;0.63;;;24.20;51.70;;;;;;5136140;28;20074;-37
2021/08/15 08:41:14;;;;;;;0.75;0.75;;;24.20;51.70;;;;;;5136160;28;20073;-37
2021/08/15 08:43:40;;;;;;;0.60;0.60;;;24.20;51.80;;;;;;5135930;28;20054;-37
2021/08/15 08:46:09;;;;;;;0.60;0.60;;;24.20;51.70;;;;;;5135858;28;20061;-36
2021/08/15 08:48:34;;;;;;;0.40;0.40;;;24.20;51.70;;;;;;5135785;28;20138;-37
2021/08/15 08:51:00;;;;;;;0.93;0.80;;;24.20;51.60;;;;;;5135751;28;20525;-37
2021/08/15 08:53:27;;;;;;;0.50;0.50;;;24.20;51.60;;;;;;5135751;28;20053;-37
2021/08/15 08:55:52;;;;;;;0.63;0.63;;;24.30;51.60;;;;;;5136047;28;20106;-36
2021/08/15 08:58:18;;;;;;;0.50;0.50;;;24.30;51.60;;;;;;5135521;28;20091;-37
2021/08/15 09:00:44;;;;;;;0.60;0.60;;;24.30;51.50;;;;;;5135569;28;20059;-37
2021/08/15 09:03:09;;;;;;;0.70;0.70;;;24.30;51.50;;;;;;5135619;28;20089;-37
2021/08/15 09:05:36;;;;;;;0.60;0.60;;;24.30;51.50;;;;;;5135801;28;20085;-37
2021/08/15 09:08:02;;;;;;;0.60;0.60;;;24.30;51.50;;;;;;5135648;28;20066;-37
2021/08/15 09:10:34;;;;;;;0.60;0.60;;;24.30;51.50;;;;;;5135795;28;20471;-36
2021/08/15 09:13:07;;;;;;;0.60;0.60;;;24.30;51.40;;;;;;5135768;28;20204;-36
2021/08/15 09:15:33;;;;;;;0.50;0.50;;;24.40;51.40;;;;;;5135743;28;20536;-37
2021/08/15 09:17:59;;;;;;;0.70;0.70;;;24.40;51.30;;;;;;5135344;28;20047;-37
2021/08/15 09:20:40;;;;;;;0.65;0.60;;;24.40;51.30;;;;;;5135246;28;20524;-36
2021/08/15 09:23:19;;;;;;;0.70;0.70;;;24.40;51.30;;;;;;5135674;27;20051;-36
2021/08/15 09:25:44;;;;;;;0.75;0.75;;;24.40;51.30;;;;;;5135505;28;20410;-36
2021/08/15 09:28:10;;;;;;;0.60;0.60;;;24.40;51.30;;;;;;5134645;28;20052;-36
2021/08/15 09:30:36;;;;;;;0.70;0.70;;;24.40;51.20;;;;;;5135744;28;20475;-37
2021/08/15 09:33:10;;;;;;;0.70;0.70;;;24.40;51.20;;;;;;5135674;28;20062;-37
2021/08/15 09:35:35;;;;;;;0.60;0.60;;;24.50;51.20;;;;;;5135058;28;20988;-36
2021/08/15 09:38:13;;;;;;;0.77;0.77;;;24.50;51.10;;;;;;5134723;28;20055;-36
2021/08/15 09:40:50;;;;;;;0.70;0.70;;;24.50;51.10;;;;;;5135006;28;20051;-36
2021/08/15 09:43:17;;;;;;;0.50;0.50;;;24.50;51.10;;;;;;5134893;28;20043;-37
2021/08/15 09:45:51;;;;;;;0.40;0.40;;;24.50;51.00;;;;;;5135244;28;20126;-36
2021/08/15 09:48:24;;;;;;;0.50;0.50;;;24.50;50.90;;;;;;5134819;28;20476;-36
2021/08/15 09:51:10;;;;;;;0.60;0.60;;;24.50;50.90;;;;;;5135251;28;20080;-35
2021/08/15 09:54:00;;;;;;;0.57;0.57;;;24.50;50.90;;;;;;5134726;28;20047;-36
2021/08/15 09:56:34;;;;;;;0.50;0.50;;;24.50;50.90;;;;;;5134702;28;20051;-36
2021/08/15 09:59:09;;;;;;;0.70;0.70;;;24.50;51.50;;;;;;5134439;28;20556;-36
2021/08/15 10:01:36;;;;;;;0.68;0.68;;;24.50;51.00;;;;;;5134686;28;20130;-36
2021/08/15 10:04:01;;;;;;;0.60;0.60;;;24.50;51.10;;;;;;5116808;28;20051;-36
2021/08/15 10:06:27;;;;;;;0.70;0.70;;;24.50;51.10;;;;;;5134298;28;20134;-36
2021/08/15 10:08:54;;;;;;;0.68;0.68;;;24.40;51.10;;;;;;5134844;28;20047;-37
2021/08/15 10:11:19;;;;;;;0.68;0.68;;;24.40;51.20;;;;;;5135068;28;20070;-36
2021/08/15 10:13:45;;;;;;;0.70;0.70;;;24.40;51.20;;;;;;5134492;28;20047;-37
2021/08/15 10:16:11;;;;;;;0.50;0.50;;;24.40;51.20;;;;;;5134622;28;20134;-35
2021/08/15 10:18:40;;;;;;;0.63;0.63;;;24.40;51.20;;;;;;5134686;28;20059;-35
2021/08/15 10:21:14;;;;;;;0.60;0.60;;;24.40;51.30;;;;;;5134323;28;20047;-36
2021/08/15 10:23:42;;;;;;;0.68;0.68;;;24.40;51.30;;;;;;5134621;28;20532;-36
2021/08/15 10:26:36;;;;;;;0.70;0.70;;;24.40;51.30;;;;;;5134284;28;20051;-36
2021/08/15 10:29:04;;;;;;;0.70;0.70;;;24.40;51.20;;;;;;5133818;28;20058;-36
2021/08/15 10:32:05;;;;;;;0.60;0.60;;;24.40;51.20;;;;;;5134551;28;20047;-36
2021/08/15 10:34:49;;;;;;;0.73;0.73;;;24.50;51.10;;;;;;5134111;27;20146;-36
2021/08/15 10:37:26;;;;;;;0.70;0.70;;;24.50;51.00;;;;;;5133686;28;20078;-37
2021/08/15 10:39:56;;;;;;;0.70;0.70;;;24.50;51.00;;;;;;5133890;28;20509;-37
2021/08/15 10:42:39;;;;;;;0.60;0.60;;;24.50;50.90;;;;;;5134292;28;20134;-37
2021/08/15 10:45:22;;;;;;;0.60;0.60;;;24.50;50.90;;;;;;5134298;28;20405;-37
2021/08/15 10:48:08;;;;;;;0.70;0.70;;;24.60;50.90;;;;;;5133743;28;20530;-37
2021/08/15 10:50:48;;;;;;;0.60;0.60;;;24.60;50.80;;;;;;5134123;28;20491;-36
2021/08/15 10:53:28;;;;;;;0.50;0.50;;;24.60;50.70;;;;;;5134173;28;20047;-37
2021/08/15 10:55:55;;;;;;;0.70;0.70;;;24.60;50.70;;;;;;5133763;28;20051;-34
2021/08/15 10:58:44;;;;;;;0.60;0.60;;;24.70;50.70;;;;;;5134277;28;20051;-36
2021/08/15 11:01:18;;;;;;;0.60;0.60;;;24.70;50.50;;;;;;5133760;28;20055;-36
2021/08/15 11:03:46;;;;;;;0.55;0.55;;;24.80;50.40;;;;;;5134405;28;20079;-36
2021/08/15 11:06:30;;;;;;;0.52;0.52;;;24.90;50.30;;;;;;5133866;28;20054;-36
2021/08/15 11:09:05;;;;;;;1.50;0.88;;;24.90;50.10;;;;;;5133573;28;20047;-37
2021/08/15 11:11:33;;;;;;;0.50;0.50;;;25.00;50.10;;;;;;5133673;28;20051;-37
2021/08/15 11:14:17;;;;;;;0.65;0.65;;;25.00;50.00;;;;;;5133703;28;20047;-37
2021/08/15 11:16:48;;;;;;;0.60;0.60;;;25.00;49.80;;;;;;5133613;28;20050;-36
2021/08/15 11:19:14;;;;;;;0.60;0.60;;;25.00;49.90;;;;;;5133571;28;20051;-36
2021/08/15 11:22:17;;;;;;;0.50;0.50;;;25.00;50.00;;;;;;5133721;28;20043;-36
2021/08/15 11:24:45;;;;;;;0.63;0.60;;;24.90;50.00;;;;;;5133715;28;20043;-36
2021/08/15 11:27:30;;;;;;;0.60;0.60;;;24.90;50.10;;;;;;5133603;28;20554;-37
2021/08/15 11:29:57;;;;;;;0.60;0.60;;;24.80;50.10;;;;;;5133156;28;20063;-36
2021/08/15 11:32:25;;;;;;;0.68;0.68;;;24.80;50.20;;;;;;5133399;28;20054;-36
2021/08/15 11:34:56;;;;;;;0.60;0.60;;;24.80;50.30;;;;;;5133560;28;20055;-36
2021/08/15 11:37:25;;;;;;;0.50;0.50;;;24.80;50.30;;;;;;5133669;28;20055;-36
2021/08/15 11:39:52;;;;;;;0.50;0.50;;;24.80;50.30;;;;;;5133253;28;20054;-36
2021/08/15 11:42:26;;;;;;;0.70;0.70;;;24.80;50.30;;;;;;5133361;28;20104;-36
2021/08/15 11:45:00;;;;;;;0.70;0.70;;;24.80;50.30;;;;;;5133086;28;20100;-36
2021/08/15 11:47:27;;;;;;;0.70;0.70;;;24.80;50.30;;;;;;5133632;27;20055;-36
2021/08/15 11:49:54;;;;;;;0.40;0.40;;;24.80;50.30;;;;;;5136598;28;20047;-36
2021/08/15 11:52:23;;;;;;;0.57;0.57;;;24.80;50.30;;;;;;5136702;28;20479;-36
2021/08/15 11:54:50;;;;;;;0.50;0.50;;;24.80;50.30;;;;;;5136577;28;20051;-36
2021/08/15 11:57:16;;;;;;;0.50;0.50;;;24.80;50.30;;;;;;5136506;28;20402;-36
2021/08/15 11:59:45;;;;;;;0.60;0.60;;;24.80;50.30;;;;;;5136653;28;20055;-36
2021/08/15 12:02:29;;;;;;;0.60;0.60;;;24.80;50.30;;;;;;5136595;28;20051;-36
2021/08/15 12:04:54;;;;;;;0.65;0.65;;;24.80;50.30;;;;;;5136550;28;20469;-36
2021/08/15 12:07:22;;;;;;;0.80;0.80;;;24.80;50.30;;;;;;5136160;28;20161;-37
2021/08/15 12:10:09;;;;;;;0.73;0.73;;;24.80;50.30;;;;;;5136485;28;20142;-37
2021/08/15 12:12:35;;;;;;;0.60;0.60;;;24.80;50.30;;;;;;5135621;28;20050;-37
2021/08/15 12:15:08;;;;;;;0.68;0.60;;;24.80;50.20;;;;;;5136870;28;20134;-36
2021/08/15 12:17:50;;;;;;;0.50;0.50;;;24.80;50.20;;;;;;5136553;28;20090;-36
2021/08/15 12:20:20;;;;;;;0.73;0.70;;;24.90;50.20;;;;;;5136266;28;20054;-36
2021/08/15 12:22:47;;;;;;;0.60;0.60;;;24.90;50.20;;;;;;5136279;28;20058;-37
2021/08/15 12:25:23;;;;;;;0.60;0.60;;;24.90;50.20;;;;;;5136157;28;20054;-37
2021/08/15 12:27:49;;;;;;;0.70;0.60;;;24.90;50.00;;;;;;5135989;28;20448;-36
2021/08/15 12:30:28;;;;;;;0.50;0.50;;;24.90;50.00;;;;;;5117693;28;20134;-36
2021/08/15 12:32:54;;;;;;;0.50;0.50;;;24.90;49.90;;;;;;5136674;28;20078;-36
2021/08/15 12:35:26;;;;;;;0.52;0.52;;;24.90;49.90;;;;;;5117605;28;20081;-36
2021/08/15 12:37:55;;;;;;;0.47;0.47;;;25.00;50.00;;;;;;5136049;28;20051;-36
2021/08/15 12:40:32;;;;;;;0.57;0.57;;;25.00;50.00;;;;;;5135926;28;20051;-37
2021/08/15 12:43:00;;;;;;;0.50;0.50;;;25.00;49.90;;;;;;5135974;28;20047;-36
2021/08/15 12:45:35;;;;;;;0.60;0.60;;;25.00;49.80;;;;;;5135968;28;20383;-45
2021/08/15 12:48:02;;;;;;;0.57;0.57;;;25.00;49.80;;;;;;5135503;28;20108;-37
2021/08/15 12:50:29;;;;;;;0.73;0.73;;;25.00;49.80;;;;;;5135711;28;20047;-37
2021/08/15 12:52:58;;;;;;;0.50;0.50;;;25.00;49.80;;;;;;5135790;28;20047;-36